createdAt,value
2018-11-28T00:00:09.266Z,84.00
2018-11-28T00:02:37.989Z,84.63
2018-11-28T00:05:09.941Z,75.03
2018-11-28T00:07:38.740Z,89.60
2018-11-28T00:10:10.390Z,82.23
2018-11-28T00:12:39.325Z,85.50
2018-11-28T00:15:09.551Z,81.97
2018-11-28T00:17:37.900Z,79.10
2018-11-28T00:20:10.435Z,91.47
2018-11-28T00:22:38.809Z,79.87
2018-11-28T00:25:08.185Z,79.77
2018-11-28T00:27:36.545Z,86.90
2018-11-28T00:30:07.755Z,79.90
2018-11-28T00:32:36.121Z,82.37
2018-11-28T00:35:04.819Z,73.30
2018-11-28T00:37:33.212Z,82.23
2018-11-28T00:40:01.584Z,75.70
2018-11-28T00:42:29.948Z,82.07
2018-11-28T00:44:58.845Z,77.40
2018-11-28T00:47:27.210Z,81.47
2018-11-28T00:49:55.608Z,83.60
2018-11-28T00:52:23.983Z,80.90
2018-11-28T00:54:52.310Z,83.60
2018-11-28T00:57:20.644Z,79.50
2018-11-28T00:59:49.020Z,79.87
2018-11-28T01:02:17.398Z,78.97
2018-11-28T01:04:45.753Z,75.67
2018-11-28T01:07:14.448Z,72.70
2018-11-28T01:09:42.804Z,71.90
2018-11-28T01:12:11.154Z,74.60
2018-11-28T01:14:40.460Z,75.17
2018-11-28T01:17:08.823Z,66.97
2018-11-28T01:19:37.175Z,67.87
2018-11-28T01:22:05.879Z,70.77
2018-11-28T01:24:34.234Z,74.50
2018-11-28T01:27:02.601Z,70.93
2018-11-28T01:29:30.974Z,75.13
2018-11-28T01:31:59.341Z,80.90
2018-11-28T01:34:27.685Z,75.60
2018-11-28T01:36:56.046Z,58.17
2018-11-28T01:39:24.402Z,72.40
2018-11-28T01:41:52.783Z,63.73
2018-11-28T01:44:21.150Z,73.27
2018-11-28T01:46:49.557Z,74.17
2018-11-28T01:49:17.904Z,73.30
2018-11-28T01:51:46.234Z,71.57
2018-11-28T01:54:14.589Z,71.67
2018-11-28T01:56:42.926Z,78.27
2018-11-28T01:59:11.285Z,77.17
2018-11-28T02:01:39.618Z,70.90
2018-11-28T02:04:08.375Z,67.83
2018-11-28T02:06:37.347Z,71.40
2018-11-28T02:09:09.060Z,71.07
2018-11-28T02:11:37.410Z,82.07
2018-11-28T02:14:06.134Z,72.77
2018-11-28T02:16:34.498Z,69.27
2018-11-28T02:19:02.874Z,75.37
2018-11-28T02:21:31.556Z,78.47
2018-11-28T02:23:59.912Z,70.57
2018-11-28T02:27:31.801Z,66.10
2018-11-28T02:30:00.126Z,70.60
2018-11-28T02:32:28.511Z,66.63
2018-11-28T02:34:57.076Z,70.40
2018-11-28T02:37:25.694Z,60.67
2018-11-28T02:39:54.284Z,62.10
2018-11-28T02:42:22.626Z,72.43
2018-11-28T02:44:51.005Z,73.53
2018-11-28T02:47:19.472Z,76.67
2018-11-28T02:49:47.853Z,58.27
2018-11-28T02:52:16.212Z,60.10
2018-11-28T02:54:44.561Z,73.37
2018-11-28T02:57:12.938Z,65.50
2018-11-28T02:59:41.325Z,72.60
2018-11-28T03:02:09.694Z,76.33
2018-11-28T03:04:38.069Z,76.17
2018-11-28T03:07:06.509Z,65.23
2018-11-28T03:09:35.238Z,77.20
2018-11-28T03:12:03.654Z,74.43
2018-11-28T03:14:33.031Z,74.17
2018-11-28T03:17:01.397Z,64.17
2018-11-28T03:19:29.769Z,72.00
2018-11-28T03:21:58.522Z,72.63
2018-11-28T03:24:26.879Z,75.03
2018-11-28T03:26:55.258Z,73.30
2018-11-28T03:29:23.616Z,70.53
2018-11-28T03:31:51.989Z,68.20
2018-11-28T03:34:20.368Z,76.10
2018-11-28T03:36:48.694Z,67.63
2018-11-28T03:39:17.030Z,75.30
2018-11-28T03:41:45.752Z,72.07
2018-11-28T03:44:14.098Z,68.50
2018-11-28T03:46:42.443Z,72.83
2018-11-28T03:49:11.062Z,73.53
2018-11-28T03:51:39.426Z,71.53
2018-11-28T03:54:08.132Z,65.07
2018-11-28T03:56:36.476Z,74.73
2018-11-28T03:59:05.742Z,67.00
2018-11-28T04:01:34.086Z,74.40
2018-11-28T04:04:02.485Z,74.20
2018-11-28T04:06:30.838Z,68.20
2018-11-28T04:08:59.200Z,75.63
2018-11-28T04:11:27.644Z,82.23
2018-11-28T04:13:56.009Z,68.03
2018-11-28T04:16:24.365Z,63.37
2018-11-28T04:18:52.784Z,71.50
2018-11-28T04:21:21.105Z,73.80
2018-11-28T04:23:49.463Z,64.60
2018-11-28T04:26:17.873Z,63.40
2018-11-28T04:28:46.211Z,69.70
2018-11-28T04:31:14.591Z,65.27
2018-11-28T04:33:42.988Z,69.37
2018-11-28T04:36:11.315Z,72.77
2018-11-28T04:38:39.708Z,60.93
2018-11-28T04:41:08.125Z,66.07
2018-11-28T04:43:36.486Z,69.13
2018-11-28T04:46:04.911Z,67.70
2018-11-28T04:48:33.299Z,68.40
2018-11-28T04:51:01.746Z,57.27
2018-11-28T04:53:30.094Z,68.53
2018-11-28T04:55:58.446Z,60.87
2018-11-28T04:58:26.789Z,59.43
2018-11-28T05:00:55.159Z,55.97
2018-11-28T05:03:23.539Z,56.57
2018-11-28T05:05:51.884Z,59.53
2018-11-28T05:08:20.263Z,55.40
2018-11-28T05:10:48.626Z,57.50
2018-11-28T05:13:17.023Z,52.00
2018-11-28T05:15:45.493Z,36.07
2018-11-28T05:18:14.126Z,35.70
2018-11-28T05:20:42.468Z,61.37
2018-11-28T05:23:10.872Z,55.13
2018-11-28T05:25:39.264Z,51.30
2018-11-28T05:28:07.954Z,48.23
2018-11-28T05:30:36.301Z,54.50
2018-11-28T05:33:04.705Z,53.53
2018-11-28T05:35:37.355Z,58.50
2018-11-28T05:38:13.071Z,48.30
2018-11-28T05:40:42.601Z,54.80
2018-11-28T05:43:10.972Z,65.73
2018-11-28T05:45:39.319Z,61.03
2018-11-28T05:48:07.732Z,55.10
2018-11-28T05:50:36.162Z,46.57
2018-11-28T05:53:04.781Z,59.10
2018-11-28T05:55:33.153Z,59.43
2018-11-28T05:58:01.526Z,56.20
2018-11-28T06:00:40.426Z,58.17
2018-11-28T06:03:10.649Z,41.10
2018-11-28T06:05:40.059Z,46.87
2018-11-28T06:08:08.523Z,56.33
2018-11-28T06:10:36.961Z,55.80
2018-11-28T06:13:05.402Z,54.80
2018-11-28T06:15:33.812Z,58.07
2018-11-28T06:18:02.184Z,60.73
2018-11-28T06:20:30.544Z,35.80
2018-11-28T06:22:58.882Z,61.30
2018-11-28T06:25:27.229Z,55.03
2018-11-28T06:27:55.588Z,49.37
2018-11-28T06:30:24.668Z,58.33
2018-11-28T06:32:53.056Z,60.50
2018-11-28T06:35:21.449Z,53.60
2018-11-28T06:37:49.818Z,56.20
2018-11-28T06:40:23.584Z,52.73
2018-11-28T06:42:47.939Z,50.97
2018-11-28T06:45:19.362Z,50.97
2018-11-28T06:47:47.806Z,41.97
2018-11-28T06:50:17.188Z,56.03
2018-11-28T06:52:47.104Z,50.77
2018-11-28T06:55:16.634Z,56.93
2018-11-28T06:57:45.407Z,50.93
2018-11-28T07:00:23.063Z,58.10
2018-11-28T07:02:52.976Z,53.23
2018-11-28T07:05:22.493Z,59.17
2018-11-28T07:07:51.596Z,53.17
2018-11-28T07:10:20.760Z,33.23
2018-11-28T07:12:49.186Z,52.70
2018-11-28T07:15:19.193Z,51.57
2018-11-28T07:17:47.570Z,55.57
2018-11-28T07:20:16.477Z,49.43
2018-11-28T07:22:44.880Z,49.13
2018-11-28T07:25:15.230Z,53.23
2018-11-28T07:27:45.305Z,45.33
2018-11-28T07:30:16.082Z,42.67
2018-11-28T07:32:44.633Z,48.63
2018-11-28T07:35:14.116Z,49.17
2018-11-28T07:37:42.922Z,50.37
2018-11-28T07:40:14.829Z,48.70
2018-11-28T07:42:45.145Z,48.03
2018-11-28T07:45:13.897Z,46.53
2018-11-28T07:47:42.304Z,52.03
2018-11-28T07:50:10.868Z,42.33
2018-11-28T07:52:41.100Z,48.57
2018-11-28T07:55:11.138Z,43.53
2018-11-28T07:57:40.434Z,49.33
2018-11-28T08:00:11.640Z,44.30
2018-11-28T08:02:40.178Z,51.90
2018-11-28T08:05:09.610Z,45.67
2018-11-28T08:07:38.114Z,46.90
2018-11-28T08:10:08.948Z,45.90
2018-11-28T08:12:37.406Z,44.90
2018-11-28T08:15:07.170Z,43.80
2018-11-28T08:17:36.404Z,46.40
2018-11-28T08:20:04.701Z,47.10
2018-11-28T08:22:33.048Z,39.07
2018-11-28T08:25:01.433Z,44.83
2018-11-28T08:27:29.827Z,48.10
2018-11-28T08:29:58.201Z,38.80
2018-11-28T08:32:26.650Z,36.07
2018-11-28T08:34:55.048Z,43.60
2018-11-28T08:37:23.411Z,38.77
2018-11-28T08:39:51.834Z,39.23
2018-11-28T08:42:20.198Z,40.57
2018-11-28T08:44:48.851Z,45.90
2018-11-28T08:47:17.263Z,37.03
2018-11-28T08:49:45.707Z,42.33
2018-11-28T08:52:14.445Z,49.20
2018-11-28T08:54:42.839Z,37.13
2018-11-28T08:57:11.210Z,38.20
2018-11-28T08:59:39.655Z,38.83
2018-11-28T09:02:08.030Z,37.60
2018-11-28T09:04:36.804Z,40.87
2018-11-28T09:07:05.371Z,43.43
2018-11-28T09:09:33.734Z,43.30
2018-11-28T09:12:02.477Z,41.50
2018-11-28T09:14:30.892Z,41.70
2018-11-28T09:16:59.285Z,38.67
2018-11-28T09:19:27.699Z,40.53
2018-11-28T09:21:56.085Z,46.43
2018-11-28T09:24:24.458Z,41.10
2018-11-28T09:26:52.821Z,40.67
2018-11-28T09:29:21.220Z,37.27
2018-11-28T09:31:49.562Z,38.37
2018-11-28T09:34:17.912Z,35.87
2018-11-28T09:36:46.268Z,39.40
2018-11-28T09:39:14.619Z,37.93
2018-11-28T09:41:43.010Z,37.17
2018-11-28T09:44:11.393Z,33.70
2018-11-28T09:46:39.769Z,36.03
2018-11-28T09:49:08.148Z,37.03
2018-11-28T09:51:37.107Z,39.60
2018-11-28T09:54:06.300Z,36.67
2018-11-28T09:56:34.652Z,36.97
2018-11-28T09:59:03.035Z,37.00
2018-11-28T10:01:31.434Z,33.60
2018-11-28T10:03:59.814Z,35.63
2018-11-28T10:06:28.194Z,35.27
2018-11-28T10:08:56.558Z,35.73
2018-11-28T10:11:24.924Z,39.53
2018-11-28T10:13:53.319Z,42.47
2018-11-28T10:16:21.683Z,41.73
2018-11-28T10:18:50.032Z,44.00
2018-11-28T10:21:18.392Z,40.73
2018-11-28T10:23:46.784Z,40.10
2018-11-28T10:26:15.161Z,46.53
2018-11-28T10:28:43.521Z,43.33
2018-11-28T10:31:11.899Z,42.83
2018-11-28T10:33:40.284Z,38.90
2018-11-28T10:36:09.008Z,41.87
2018-11-28T10:38:37.414Z,36.70
2018-11-28T10:41:06.842Z,41.97
2018-11-28T10:43:35.290Z,38.93
2018-11-28T10:46:03.680Z,38.60
2018-11-28T10:48:33.090Z,35.17
2018-11-28T10:51:01.462Z,33.37
2018-11-28T10:53:29.902Z,31.37
2018-11-28T10:55:58.253Z,33.13
2018-11-28T10:58:27.228Z,32.13
2018-11-28T11:01:00.518Z,28.17
2018-11-28T11:03:35.018Z,29.03
2018-11-28T11:06:08.969Z,30.80
2018-11-28T11:08:42.657Z,27.47
2018-11-28T11:11:16.247Z,24.07
2018-11-28T11:13:50.059Z,21.33
2018-11-28T11:16:33.969Z,24.60
2018-11-28T11:19:02.367Z,24.10
2018-11-28T11:21:30.800Z,21.23
2018-11-28T11:23:59.179Z,19.07
2018-11-28T11:26:27.563Z,18.77
2018-11-28T11:28:55.929Z,23.27
2018-11-28T11:31:24.286Z,17.20
2018-11-28T11:33:52.682Z,20.27
2018-11-28T11:36:21.036Z,15.67
2018-11-28T11:38:49.399Z,17.60
2018-11-28T11:41:17.818Z,16.93
2018-11-28T11:45:15.696Z,17.30
2018-11-28T11:47:44.405Z,17.80
2018-11-28T11:50:17.143Z,14.97
2018-11-28T11:52:46.844Z,18.03
2018-11-28T11:55:19.406Z,15.60
2018-11-28T11:57:48.432Z,14.83
2018-11-28T12:00:19.871Z,16.03
2018-11-28T12:02:58.666Z,16.87
2018-11-28T12:05:27.153Z,16.60
2018-11-28T12:07:55.557Z,16.30
2018-11-28T12:10:24.261Z,16.43
2018-11-28T12:12:54.309Z,15.13
2018-11-28T12:15:22.905Z,17.07
2018-11-28T12:17:51.630Z,15.00
2018-11-28T12:20:37.625Z,17.40
2018-11-28T12:23:06.126Z,19.47
2018-11-28T12:25:34.608Z,17.67
2018-11-28T12:28:03.326Z,19.50
2018-11-28T12:30:31.809Z,17.57
2018-11-28T12:33:00.175Z,18.37
2018-11-28T12:35:28.924Z,21.00
2018-11-28T12:38:00.414Z,22.20
2018-11-28T12:40:30.732Z,22.00
2018-11-28T12:42:59.815Z,23.10
2018-11-28T12:45:28.327Z,21.77
2018-11-28T12:47:56.768Z,24.07
2018-11-28T12:50:27.824Z,20.33
2018-11-28T12:52:57.315Z,24.20
2018-11-28T12:55:26.083Z,23.37
2018-11-28T12:57:55.646Z,21.60
2018-11-28T13:00:25.279Z,22.10
2018-11-28T13:02:54.003Z,23.60
2018-11-28T13:05:23.668Z,23.07
2018-11-28T13:07:52.129Z,21.70
2018-11-28T13:10:25.678Z,21.33
2018-11-28T13:12:54.606Z,21.53
2018-11-28T13:15:23.831Z,17.17
2018-11-28T13:17:52.230Z,20.77
2018-11-28T13:20:21.269Z,19.60
2018-11-28T13:22:51.140Z,20.30
2018-11-28T13:25:24.042Z,21.30
2018-11-28T13:27:52.813Z,20.93
2018-11-28T13:30:22.519Z,22.00
2018-11-28T13:32:51.839Z,19.87
2018-11-28T13:35:27.558Z,20.03
2018-11-28T13:38:04.091Z,19.93
2018-11-28T13:40:32.501Z,17.53
2018-11-28T13:43:00.894Z,18.00
2018-11-28T13:45:31.486Z,19.40
2018-11-28T13:47:59.997Z,20.70
2018-11-28T13:50:28.745Z,18.23
2018-11-28T13:52:58.294Z,19.20
2018-11-28T13:55:41.841Z,19.97
2018-11-28T13:58:00.935Z,14.80
2018-11-28T14:00:29.385Z,12.27
2018-11-28T14:02:57.753Z,10.53
2018-11-28T14:05:26.145Z,10.83
2018-11-28T14:07:54.625Z,11.60
2018-11-28T14:10:23.005Z,12.73
2018-11-28T14:12:51.874Z,16.87
2018-11-28T14:15:21.598Z,14.87
2018-11-28T14:17:57.618Z,12.77
2018-11-28T14:20:25.969Z,12.37
2018-11-28T14:22:54.374Z,12.03
2018-11-28T14:25:23.748Z,13.43
2018-11-28T14:27:51.876Z,11.53
2018-11-28T14:30:21.975Z,14.23
2018-11-28T14:32:51.087Z,13.07
2018-11-28T14:35:19.858Z,14.63
2018-11-28T14:38:51.943Z,12.70
2018-11-28T14:41:20.294Z,16.83
2018-11-28T14:43:48.672Z,13.43
2018-11-28T14:46:17.064Z,16.40
2018-11-28T14:48:45.421Z,15.30
2018-11-28T14:51:13.797Z,13.73
2018-11-28T14:53:42.226Z,14.77
2018-11-28T14:56:10.651Z,21.33
2018-11-28T14:58:39.026Z,16.03
2018-11-28T15:01:07.445Z,17.03
2018-11-28T15:03:35.851Z,18.97
2018-11-28T15:06:10.799Z,18.00
2018-11-28T15:08:40.021Z,20.80
2018-11-28T15:11:10.226Z,23.83
2018-11-28T15:13:39.398Z,23.70
2018-11-28T15:16:07.942Z,16.63
2018-11-28T15:18:36.382Z,21.83
2018-11-28T15:21:05.164Z,17.93
2018-11-28T15:23:33.577Z,19.50
2018-11-28T15:26:02.125Z,21.87
2018-11-28T15:28:30.488Z,24.07
2018-11-28T15:30:58.851Z,22.23
2018-11-28T15:33:27.223Z,24.03
2018-11-28T15:35:55.601Z,24.03
2018-11-28T15:38:23.992Z,23.13
2018-11-28T15:40:53.129Z,26.30
2018-11-28T15:43:21.514Z,25.70
2018-11-28T15:45:49.958Z,27.73
2018-11-28T15:48:18.436Z,25.60
2018-11-28T15:50:46.877Z,29.53
2018-11-28T15:53:15.274Z,27.30
2018-11-28T15:55:43.696Z,30.60
2018-11-28T15:58:12.118Z,27.10
2018-11-28T16:00:40.585Z,29.43
2018-11-28T16:03:09.046Z,33.50
2018-11-28T16:05:37.436Z,76.00
2018-11-28T16:08:05.875Z,51.87
2018-11-28T16:10:42.134Z,40.70
2018-11-28T16:13:10.829Z,35.53
2018-11-28T16:15:56.511Z,34.20
2018-11-28T16:18:24.915Z,36.77
2018-11-28T16:20:53.640Z,34.10
2018-11-28T16:23:22.021Z,34.13
2018-11-28T16:25:50.531Z,37.50
2018-11-28T16:28:18.887Z,31.47
2018-11-28T16:30:47.260Z,35.10
2018-11-28T16:33:15.651Z,32.93
2018-11-28T16:35:44.258Z,33.33
2018-11-28T16:38:12.699Z,35.80
2018-11-28T16:40:41.113Z,29.40
2018-11-28T16:43:09.552Z,32.60
2018-11-28T16:45:37.960Z,30.50
2018-11-28T16:48:06.370Z,32.10
2018-11-28T16:50:34.815Z,26.90
2018-11-28T16:53:03.182Z,36.33
2018-11-28T16:55:31.968Z,34.20
2018-11-28T16:58:00.371Z,35.07
2018-11-28T17:00:30.164Z,35.00
2018-11-28T17:02:58.595Z,34.03
2018-11-28T17:05:27.329Z,36.63
2018-11-28T17:07:55.733Z,37.80
2018-11-28T17:10:25.715Z,37.60
2018-11-28T17:12:54.932Z,40.13
2018-11-28T17:15:23.683Z,34.23
2018-11-28T17:17:52.407Z,35.57
2018-11-28T17:20:23.002Z,34.80
2018-11-28T17:22:52.735Z,37.90
2018-11-28T17:25:26.476Z,38.40
2018-11-28T17:27:54.868Z,40.50
2018-11-28T17:30:27.451Z,41.63
2018-11-28T17:32:56.515Z,46.70
2018-11-28T17:36:54.337Z,40.03
2018-11-28T17:39:22.722Z,34.47
2018-11-28T17:41:51.132Z,40.73
2018-11-28T17:44:19.564Z,46.53
2018-11-28T17:46:47.930Z,47.00
2018-11-28T17:49:16.567Z,46.97
2018-11-28T17:51:44.945Z,40.57
2018-11-28T17:54:13.798Z,44.33
2018-11-28T17:56:42.171Z,51.93
2018-11-28T17:59:10.562Z,46.37
2018-11-28T18:01:38.993Z,48.00
2018-11-28T18:04:07.401Z,50.47
2018-11-28T18:06:35.791Z,47.90
2018-11-28T18:09:06.887Z,52.70
2018-11-28T18:11:35.267Z,50.00
2018-11-28T18:14:03.739Z,45.23
2018-11-28T18:16:32.102Z,48.17
2018-11-28T18:19:00.436Z,49.67
2018-11-28T18:21:28.793Z,52.93
2018-11-28T18:23:57.177Z,44.03
2018-11-28T18:26:26.653Z,37.63
2018-11-28T18:28:55.004Z,54.00
2018-11-28T18:31:23.384Z,50.30
2018-11-28T18:33:52.179Z,50.40
2018-11-28T18:36:20.537Z,61.23
2018-11-28T18:38:48.907Z,47.70
2018-11-28T18:41:17.637Z,52.10
2018-11-28T18:43:46.154Z,52.73
2018-11-28T18:46:14.878Z,62.50
2018-11-28T18:48:43.250Z,58.33
2018-11-28T18:51:11.626Z,60.47
2018-11-28T18:53:40.042Z,60.23
2018-11-28T18:56:08.434Z,66.07
2018-11-28T18:58:36.826Z,55.77
2018-11-28T19:01:05.665Z,54.83
2018-11-28T19:03:34.040Z,60.07
2018-11-28T19:06:02.451Z,54.00
2018-11-28T19:08:30.815Z,65.73
2018-11-28T19:10:59.718Z,56.77
2018-11-28T19:13:28.034Z,61.10
2018-11-28T19:15:56.550Z,59.10
2018-11-28T19:18:24.965Z,55.80
2018-11-28T19:20:53.313Z,54.03
2018-11-28T19:23:21.687Z,54.87
2018-11-28T19:25:50.376Z,27.87
2018-11-28T19:28:18.556Z,54.50
2018-11-28T19:30:46.966Z,47.47
2018-11-28T19:33:17.227Z,53.87
2018-11-28T19:35:45.995Z,37.33
2018-11-28T19:38:15.317Z,55.77
2018-11-28T19:40:46.742Z,48.20
2018-11-28T19:43:15.145Z,53.33
2018-11-28T19:45:43.515Z,56.07
2018-11-28T19:48:11.980Z,53.27
2018-11-28T19:50:40.393Z,48.63
2018-11-28T19:53:09.635Z,47.37
2018-11-28T19:55:38.189Z,44.10
2018-11-28T19:58:07.519Z,34.80
2018-11-28T20:00:36.594Z,48.53
2018-11-28T20:03:04.984Z,41.03
2018-11-28T20:05:33.386Z,37.67
2018-11-28T20:08:01.750Z,42.50
2018-11-28T20:10:30.144Z,40.50
2018-11-28T20:12:58.583Z,41.80
2018-11-28T20:15:28.355Z,36.00
2018-11-28T20:17:57.554Z,40.50
2018-11-28T20:20:26.305Z,45.33
2018-11-28T20:22:54.713Z,40.17
2018-11-28T20:25:24.449Z,39.63
2018-11-28T20:27:58.205Z,30.27
2018-11-28T20:30:32.833Z,42.90
2018-11-28T20:33:01.217Z,44.57
2018-11-28T20:35:29.609Z,47.20
2018-11-28T20:37:57.986Z,43.37
2018-11-28T20:40:26.711Z,48.63
2018-11-28T20:42:55.829Z,40.10
2018-11-28T20:45:24.399Z,37.23
2018-11-28T20:47:52.751Z,33.40
2018-11-28T20:50:24.013Z,33.33
2018-11-28T20:52:55.067Z,35.97
2018-11-28T20:55:22.885Z,40.67
2018-11-28T20:57:51.268Z,36.37
2018-11-28T21:00:21.870Z,32.40
2018-11-28T21:02:50.597Z,33.20
2018-11-28T21:05:19.337Z,33.23
2018-11-28T21:07:47.832Z,22.67
2018-11-28T21:10:22.208Z,36.10
2018-11-28T21:12:50.842Z,23.87
2018-11-28T21:15:19.232Z,28.13
2018-11-28T21:17:48.240Z,31.70
2018-11-28T21:20:23.092Z,27.90
2018-11-28T21:22:56.772Z,35.67
2018-11-28T21:25:25.214Z,28.67
2018-11-28T21:27:53.582Z,26.40
2018-11-28T21:30:23.161Z,33.77
2018-11-28T21:32:53.650Z,24.13
2018-11-28T21:35:29.073Z,31.33
2018-11-28T21:37:57.428Z,25.63
2018-11-28T21:40:25.956Z,28.93
2018-11-28T21:42:54.433Z,30.50
2018-11-28T21:45:24.239Z,28.43
2018-11-28T21:51:24.927Z,27.10
2018-11-28T21:53:53.360Z,24.43
2018-11-28T21:56:21.851Z,23.70
2018-11-28T21:58:50.695Z,29.83
2018-11-28T22:01:19.432Z,21.67
2018-11-28T22:03:47.807Z,26.07
2018-11-28T22:06:16.167Z,27.83
2018-11-28T22:08:44.599Z,26.07
2018-11-28T22:11:12.999Z,30.63
2018-11-28T22:13:41.353Z,23.30
2018-11-28T22:16:09.765Z,30.47
2018-11-28T22:18:38.121Z,28.03
2018-11-28T22:21:06.999Z,28.80
2018-11-28T22:23:35.569Z,25.50
2018-11-28T22:26:03.915Z,30.63
2018-11-28T22:28:32.787Z,26.00
2018-11-28T22:31:01.142Z,17.87
2018-11-28T22:33:29.493Z,22.80
2018-11-28T22:35:57.876Z,29.83
2018-11-28T22:38:26.235Z,25.33
2018-11-28T22:40:54.606Z,25.50
2018-11-28T22:43:22.974Z,19.10
2018-11-28T22:45:51.334Z,29.10
2018-11-28T22:48:19.708Z,23.20
2018-11-28T22:50:48.058Z,22.57
2018-11-28T22:53:16.420Z,26.40
2018-11-28T22:55:44.784Z,27.20
2018-11-28T22:58:13.178Z,26.17
2018-11-28T23:00:46.831Z,28.13
2018-11-28T23:03:15.732Z,23.33
2018-11-28T23:05:46.267Z,27.47
2018-11-28T23:08:15.683Z,21.03
2018-11-28T23:10:44.078Z,28.43
2018-11-28T23:13:14.571Z,23.40
2018-11-28T23:15:43.670Z,23.00
2018-11-28T23:18:12.260Z,26.63
2018-11-28T23:20:41.221Z,25.57
2018-11-28T23:23:10.803Z,22.43
2018-11-28T23:25:39.690Z,27.03
2018-11-28T23:28:08.367Z,26.03
2018-11-28T23:30:38.275Z,31.60
2018-11-28T23:33:08.689Z,28.37
2018-11-28T23:35:37.111Z,25.67
2018-11-28T23:38:06.195Z,28.83
2018-11-28T23:40:34.559Z,23.87
2018-11-28T23:43:03.568Z,28.10
2018-11-28T23:45:32.429Z,28.93
2018-11-28T23:48:01.153Z,23.80
2018-11-28T23:50:29.532Z,28.90
2018-11-28T23:52:57.912Z,31.10
2018-11-28T23:55:27.473Z,26.23
2018-11-28T23:57:56.003Z,23.40
